Tri State Steuben County Airport

About
Name: Tri State Steuben County Airport
Identifier:  ANQ/KANQ
Local Time:  18. Aug 01:13 EDT
Location
Flights per Day
0 flights
Distance: 287km (178mi)
Punctuality
0% (0 flights per day delayed)
Delay Average: 15 minutes
Current Weather
 18 C (Humidity: 88%)
  0kt (0km/h / 0mph) from 0°
  Few clouds at 4,600 feet (1,402 meter)
  Scattered clouds at 5,000 feet (1,524 meter)
  Overcast at 6,000 feet (1,828 meter)
  16km (10 mi.)
 METAR KANQ 140655Z AUTO 00000KT 10SM FEW046 SCT050 OVC060 18/16 A2991 RMK AO2

Current Flights

Departures
Number Departure To Airline
Arrivals
Number Arrival From Airline

Current Delays

Departures
N/A
Arrivals
N/A

Destinations

Top Destinations
Airport Flights
per week
Seats
per week
  Cleveland (CLE) 0 - 0 0
  Cincinnati (LUK) 0 - 0 0
  Madison (MSN) 0 - 0 0
  Battle Creek (BTL) 0 - 0 0
  Valparaiso (VPZ) 0 - 0 0
  Benton Harbor (BEH) 0 - 0 0
  Gaylord (GLR) 0 - 0 0
  Lima (AOH) 0 - 0 0

Airlines & Planes

Top Airlines
Airline Flights
per Day
Seats
per Day
  Nolinor Aviation 0 -
  Novair 0 -
Jet Charter Inc ( Franklin Lakes Nj ) 0 -
  Flybe Nordic 0 -
Top Plane Types
Model Flights Seats
Beech B200 Super King Air 0.1/day - 0
Cessna C182 0.1/day - 0
Piper PA-32R-301T Saratoga II 0.0/day - 0
Piper PA-46-350P Malibu Mirage 0.0/day - 0